Time;durP1;ratioP1;P1;durP2;ratioP2;P2;SDS_P1;SDS_P2;PMS_P1;PMS_P2;Temp;Humidity;BMP_temperature;BMP_pressure;BME280_temperature;BME280_humidity;BME280_pressure;Samples;Min_cycle;Max_cycle;Signal;HPM_P1;HPM_P2
2021/03/21 00:00:32;;;;;;;3.97;3.30;;;6.30;1.00;;;;;;5121023;28;20223;-81
2021/03/21 00:03:00;;;;;;;3.80;2.88;;;6.40;1.00;;;;;;5132500;27;20214;-82
2021/03/21 00:05:28;;;;;;;3.65;3.35;;;6.50;1.00;;;;;;5118523;27;20235;-81
2021/03/21 00:07:58;;;;;;;3.80;3.47;;;6.20;1.00;;;;;;5118451;27;20199;-82
2021/03/21 00:10:26;;;;;;;4.22;3.75;;;6.50;1.00;;;;;;5135288;27;20875;-81
2021/03/21 00:12:53;;;;;;;6.25;2.92;;;6.20;1.00;;;;;;5105697;27;20257;-81
2021/03/21 00:15:22;;;;;;;3.85;3.47;;;6.10;1.00;;;;;;5132495;27;20259;-83
2021/03/21 00:17:49;;;;;;;4.90;3.75;;;6.20;1.00;;;;;;5132614;27;20208;-82
2021/03/21 00:20:22;;;;;;;6.68;3.97;;;6.10;1.00;;;;;;5135105;27;20225;-80
2021/03/21 00:22:49;;;;;;;3.80;3.50;;;6.10;1.00;;;;;;5131177;27;20201;-81
2021/03/21 00:25:21;;;;;;;4.78;3.92;;;6.30;1.00;;;;;;5133485;27;20885;-81
2021/03/21 00:27:48;;;;;;;4.47;3.47;;;6.30;1.00;;;;;;5129726;27;20207;-82
2021/03/21 00:30:20;;;;;;;5.97;3.28;;;6.40;1.00;;;;;;5129160;27;20751;-82
2021/03/21 00:32:47;;;;;;;7.47;3.73;;;6.30;1.00;;;;;;5134843;27;20265;-82
2021/03/21 00:35:15;;;;;;;3.38;3.13;;;6.30;1.00;;;;;;5114789;27;21194;-82
2021/03/21 00:37:42;;;;;;;3.33;3.03;;;6.30;1.00;;;;;;5138106;27;20194;-82
2021/03/21 00:40:13;;;;;;;4.15;3.70;;;6.30;1.00;;;;;;5136552;27;20226;-80
2021/03/21 00:42:41;;;;;;;6.50;4.53;;;6.20;1.00;;;;;;5115928;27;20715;-81
2021/03/21 00:45:11;;;;;;;3.40;2.93;;;6.10;1.00;;;;;;5106133;28;20209;-83
2021/03/21 00:47:38;;;;;;;3.03;2.70;;;6.10;1.00;;;;;;5135109;27;20534;-83
2021/03/21 00:50:08;;;;;;;5.10;3.35;;;6.20;1.00;;;;;;5130148;27;20472;-83
2021/03/21 00:52:36;;;;;;;7.05;4.22;;;6.30;1.00;;;;;;5126719;27;20188;-83
2021/03/21 00:55:04;;;;;;;4.03;3.17;;;6.40;1.00;;;;;;5126466;27;20194;-83
2021/03/21 00:57:32;;;;;;;3.33;2.67;;;6.30;1.00;;;;;;5119563;27;20450;-83
2021/03/21 01:00:00;;;;;;;3.40;2.95;;;6.20;1.00;;;;;;5113634;27;20240;-84
2021/03/21 01:02:27;;;;;;;5.07;2.88;;;6.20;1.00;;;;;;5112611;27;20202;-79
2021/03/21 01:04:54;;;;;;;4.38;2.95;;;6.20;1.00;;;;;;5114235;27;20218;-80
2021/03/21 01:07:21;;;;;;;3.55;2.40;;;6.20;1.00;;;;;;5118091;27;20783;-81
2021/03/21 01:09:49;;;;;;;3.53;3.22;;;6.10;1.00;;;;;;5116704;27;20228;-82
2021/03/21 01:12:16;;;;;;;6.88;3.78;;;6.00;1.00;;;;;;5110837;27;20194;-81
2021/03/21 01:14:43;;;;;;;3.28;2.65;;;6.00;1.00;;;;;;5130769;27;20210;-81
2021/03/21 01:17:11;;;;;;;3.05;2.50;;;6.00;1.00;;;;;;5136258;27;20225;-81
2021/03/21 01:19:39;;;;;;;2.78;2.58;;;5.90;1.00;;;;;;5132964;27;20286;-81
2021/03/21 01:22:07;;;;;;;3.55;2.90;;;5.80;1.00;;;;;;5128786;27;20226;-80
2021/03/21 01:24:34;;;;;;;3.78;2.85;;;5.80;1.00;;;;;;5115938;27;20201;-80
2021/03/21 01:27:01;;;;;;;3.42;2.63;;;6.00;1.00;;;;;;5115875;27;20575;-82
2021/03/21 01:29:28;;;;;;;3.72;2.85;;;6.00;1.00;;;;;;5130146;27;20223;-80
2021/03/21 01:31:55;;;;;;;2.53;2.30;;;6.00;1.00;;;;;;5113945;27;20199;-81
2021/03/21 01:34:24;;;;;;;2.30;2.10;;;6.30;1.00;;;;;;5127865;27;20195;-78
2021/03/21 01:36:51;;;;;;;3.00;2.50;;;5.80;1.00;;;;;;5132893;27;20206;-80
2021/03/21 01:39:21;;;;;;;5.32;2.60;;;6.00;1.00;;;;;;5106815;27;20225;-80
2021/03/21 01:41:56;;;;;;;2.25;2.10;;;6.10;1.00;;;;;;5134925;27;20279;-80
2021/03/21 01:44:23;;;;;;;3.47;2.60;;;6.10;1.00;;;;;;5117349;27;20254;-79
2021/03/21 01:47:21;;;;;;;2.63;2.40;;;6.20;1.00;;;;;;5123168;27;20537;-80
2021/03/21 01:49:51;;;;;;;2.80;2.13;;;6.20;1.00;;;;;;5109462;27;20245;-79
2021/03/21 01:52:29;;;;;;;4.32;3.30;;;6.10;1.00;;;;;;5132176;27;21086;-80
2021/03/21 01:54:57;;;;;;;2.93;2.60;;;6.00;1.00;;;;;;5107546;27;20222;-80
2021/03/21 01:57:25;;;;;;;2.70;2.50;;;6.10;1.00;;;;;;5132694;27;20500;-79
2021/03/21 01:59:54;;;;;;;3.75;2.30;;;6.10;1.00;;;;;;5134804;27;20266;-78
2021/03/21 02:02:21;;;;;;;2.28;1.77;;;6.00;1.00;;;;;;5111813;27;20202;-79
2021/03/21 02:04:50;;;;;;;3.63;2.10;;;6.10;1.00;;;;;;5111046;27;20199;-81
2021/03/21 02:07:30;;;;;;;3.13;2.50;;;6.00;1.00;;;;;;5129867;27;20209;-80
2021/03/21 02:10:08;;;;;;;2.42;2.08;;;6.10;1.00;;;;;;5134553;27;20224;-79
2021/03/21 02:12:41;;;;;;;2.65;2.45;;;6.10;1.00;;;;;;5132156;27;20574;-79
2021/03/21 02:15:16;;;;;;;3.03;1.98;;;6.20;1.00;;;;;;5133248;27;20723;-80
2021/03/21 02:17:50;;;;;;;3.13;2.20;;;6.10;1.00;;;;;;5126332;27;20193;-79
2021/03/21 02:20:59;;;;;;;3.03;2.30;;;6.00;1.00;;;;;;5130935;27;20237;-81
2021/03/21 02:23:51;;;;;;;2.63;2.40;;;6.20;1.00;;;;;;5066160;27;20218;-81
2021/03/21 02:26:43;;;;;;;2.60;2.30;;;6.10;1.00;;;;;;5115368;27;20204;-81
2021/03/21 02:29:29;;;;;;;4.35;2.17;;;6.10;1.00;;;;;;5106572;27;20308;-80
2021/03/21 02:32:00;;;;;;;2.30;2.10;;;6.10;1.00;;;;;;5113102;27;20206;-83
2021/03/21 02:34:48;;;;;;;5.25;2.10;;;6.10;1.00;;;;;;5127412;27;20230;-82
2021/03/21 02:37:22;;;;;;;1.90;1.70;;;6.10;1.00;;;;;;5118141;27;20233;-82
2021/03/21 02:39:55;;;;;;;3.08;1.98;;;6.10;1.00;;;;;;5133024;27;20214;-82
2021/03/21 02:42:27;;;;;;;2.88;2.55;;;6.40;1.00;;;;;;5135675;27;20218;-82
2021/03/21 02:45:06;;;;;;;2.85;2.63;;;6.10;1.00;;;;;;5135043;27;21207;-82
2021/03/21 02:47:33;;;;;;;2.17;1.90;;;6.00;1.00;;;;;;5130037;27;20197;-81
2021/03/21 02:50:10;;;;;;;4.57;2.42;;;6.00;1.00;;;;;;5113676;27;20331;-80
2021/03/21 02:52:41;;;;;;;4.38;1.98;;;6.00;1.00;;;;;;5104482;28;20273;-80
2021/03/21 02:55:17;;;;;;;3.10;2.60;;;6.10;1.00;;;;;;5130850;27;21016;-83
2021/03/21 02:57:50;;;;;;;2.92;2.47;;;6.20;1.00;;;;;;5128791;27;20277;-82
2021/03/21 03:00:25;;;;;;;3.03;2.70;;;6.60;1.00;;;;;;5135194;27;20230;-82
2021/03/21 03:02:56;;;;;;;2.70;2.50;;;6.30;1.00;;;;;;5130710;27;20235;-82
2021/03/21 03:05:27;;;;;;;2.70;2.45;;;6.30;1.00;;;;;;5127611;27;20224;-81
2021/03/21 03:07:58;;;;;;;4.28;2.35;;;6.20;1.00;;;;;;5116397;27;20194;-81
2021/03/21 03:10:30;;;;;;;2.85;2.28;;;6.10;1.00;;;;;;5113915;28;20753;-80
2021/03/21 03:13:03;;;;;;;2.70;2.50;;;6.40;1.00;;;;;;5132663;27;20210;-80
2021/03/21 03:15:32;;;;;;;3.03;1.98;;;6.00;1.00;;;;;;5097358;28;20203;-81
2021/03/21 03:18:08;;;;;;;2.80;2.60;;;6.10;1.00;;;;;;5105838;28;20683;-79
2021/03/21 03:20:41;;;;;;;3.15;2.83;;;6.30;1.00;;;;;;5125816;28;20282;-79
2021/03/21 03:23:19;;;;;;;2.75;2.30;;;6.10;1.00;;;;;;5108501;28;20220;-78
2021/03/21 03:25:53;;;;;;;2.40;2.20;;;5.90;1.00;;;;;;5130902;28;20330;-79
2021/03/21 03:28:27;;;;;;;4.82;2.60;;;5.80;1.00;;;;;;5129002;27;20255;-80
2021/03/21 03:31:01;;;;;;;4.40;2.97;;;5.70;1.00;;;;;;5129035;28;20656;-80
2021/03/21 03:33:29;;;;;;;2.38;2.17;;;5.80;1.00;;;;;;5108634;28;20232;-81
2021/03/21 03:35:57;;;;;;;2.88;2.65;;;5.80;1.00;;;;;;5119216;28;20616;-81
2021/03/21 03:38:24;;;;;;;2.65;2.45;;;5.80;1.00;;;;;;5139337;27;20198;-78
2021/03/21 03:40:59;;;;;;;2.47;2.28;;;5.80;1.00;;;;;;5142701;27;20226;-80
2021/03/21 03:43:33;;;;;;;5.68;2.40;;;6.00;1.00;;;;;;5117404;27;20215;-80
2021/03/21 03:46:12;;;;;;;3.20;2.67;;;6.00;1.00;;;;;;5140669;27;20208;-80
2021/03/21 03:48:44;;;;;;;3.42;2.70;;;6.20;1.00;;;;;;5135934;27;20275;-81
2021/03/21 03:51:17;;;;;;;2.78;2.45;;;6.00;1.00;;;;;;5124176;27;20206;-80
2021/03/21 03:54:09;;;;;;;2.97;2.67;;;5.90;1.00;;;;;;5138744;27;20192;-81
2021/03/21 03:56:44;;;;;;;4.22;2.70;;;6.00;1.00;;;;;;5142534;27;20201;-80
2021/03/21 03:59:33;;;;;;;3.15;2.65;;;6.00;1.00;;;;;;5139055;27;20691;-80
2021/03/21 04:02:07;;;;;;;4.38;2.85;;;6.10;1.00;;;;;;5127670;27;20272;-80
2021/03/21 04:04:42;;;;;;;4.13;2.50;;;6.20;1.00;;;;;;5136562;27;20246;-80
2021/03/21 04:07:18;;;;;;;3.13;2.90;;;6.50;1.00;;;;;;5136596;27;20217;-80
2021/03/21 04:09:52;;;;;;;2.92;2.63;;;6.40;1.00;;;;;;5153457;27;20241;-79
2021/03/21 04:12:26;;;;;;;3.08;2.83;;;6.10;1.00;;;;;;5119026;27;20197;-81
2021/03/21 04:14:59;;;;;;;2.40;2.20;;;6.10;1.00;;;;;;5121493;27;20208;-81
2021/03/21 04:17:33;;;;;;;2.95;2.40;;;6.20;1.00;;;;;;5137546;27;20213;-80
2021/03/21 04:20:05;;;;;;;3.13;2.65;;;6.50;1.00;;;;;;5117309;27;20220;-80
2021/03/21 04:22:37;;;;;;;3.30;2.20;;;6.00;1.00;;;;;;5116191;27;20219;-82
2021/03/21 04:25:08;;;;;;;3.17;2.60;;;6.20;1.00;;;;;;5110159;27;20210;-81
2021/03/21 04:27:39;;;;;;;2.65;2.45;;;5.80;1.00;;;;;;5136455;27;20215;-81
2021/03/21 04:30:16;;;;;;;3.78;2.40;;;5.90;1.00;;;;;;5111464;27;20233;-80
2021/03/21 04:32:47;;;;;;;3.00;2.55;;;6.00;1.00;;;;;;5122774;27;20269;-80
2021/03/21 04:35:20;;;;;;;4.15;2.33;;;6.00;1.00;;;;;;5139894;27;20568;-80
2021/03/21 04:37:52;;;;;;;4.60;3.00;;;6.10;1.00;;;;;;5121191;27;20190;-80
2021/03/21 04:40:21;;;;;;;4.40;3.45;;;6.10;1.00;;;;;;5139780;27;20223;-80
2021/03/21 04:42:53;;;;;;;2.70;2.50;;;6.00;1.00;;;;;;5138121;27;20206;-82
2021/03/21 04:45:24;;;;;;;3.05;2.75;;;6.00;1.00;;;;;;5120304;27;20196;-79
2021/03/21 04:47:58;;;;;;;4.00;3.03;;;5.90;1.00;;;;;;5141624;27;20191;-81
2021/03/21 04:50:26;;;;;;;3.78;3.10;;;5.90;1.00;;;;;;5139828;27;20295;-82
2021/03/21 04:52:57;;;;;;;2.75;2.42;;;5.90;1.00;;;;;;5117482;27;20811;-82
2021/03/21 04:55:28;;;;;;;3.28;2.97;;;5.80;1.00;;;;;;5122670;27;20229;-82
2021/03/21 04:57:57;;;;;;;3.92;2.60;;;5.70;1.00;;;;;;5119274;27;20201;-83
2021/03/21 05:00:39;;;;;;;5.53;2.50;;;5.80;1.00;;;;;;5108219;27;20187;-81
2021/03/21 05:03:17;;;;;;;3.70;3.20;;;5.90;1.00;;;;;;5118357;27;20194;-83
2021/03/21 05:05:50;;;;;;;3.38;2.78;;;6.00;1.00;;;;;;5132596;27;20199;-84
2021/03/21 05:08:23;;;;;;;2.50;2.30;;;5.80;1.00;;;;;;5123196;27;20220;-82
2021/03/21 05:10:53;;;;;;;2.38;2.10;;;5.80;1.00;;;;;;5150627;27;20208;-80
2021/03/21 05:13:26;;;;;;;3.28;2.65;;;5.70;1.00;;;;;;5134178;27;20200;-81
2021/03/21 05:15:57;;;;;;;2.08;1.90;;;5.80;1.00;;;;;;5145822;27;20310;-83
2021/03/21 05:18:34;;;;;;;2.83;2.10;;;6.00;1.00;;;;;;5144854;27;20269;-80
2021/03/21 05:21:09;;;;;;;2.60;2.25;;;5.90;1.00;;;;;;5145401;27;20219;-80
2021/03/21 05:23:43;;;;;;;3.35;2.72;;;6.10;1.00;;;;;;5131159;27;20224;-79
2021/03/21 05:26:18;;;;;;;3.28;2.00;;;6.10;1.00;;;;;;5131641;27;20197;-79
2021/03/21 05:28:54;;;;;;;3.17;2.88;;;5.90;1.00;;;;;;5139524;27;20235;-80
2021/03/21 05:31:22;;;;;;;3.50;2.67;;;6.00;1.00;;;;;;5125739;27;20195;-82
2021/03/21 05:33:51;;;;;;;2.80;2.50;;;6.00;1.00;;;;;;5141271;27;20890;-80
2021/03/21 05:36:28;;;;;;;2.70;2.47;;;6.10;1.00;;;;;;5117951;27;20228;-80
2021/03/21 05:38:56;;;;;;;2.60;2.40;;;6.00;1.00;;;;;;5109432;27;20844;-81
2021/03/21 05:42:10;;;;;;;1.95;1.75;;;5.90;1.00;;;;;;5134629;27;20241;-83
2021/03/21 05:45:12;;;;;;;2.40;1.92;;;5.90;1.00;;;;;;5126698;27;20208;-79
2021/03/21 05:47:56;;;;;;;3.03;1.92;;;5.90;1.00;;;;;;5083224;28;20220;-79
2021/03/21 05:50:50;;;;;;;2.72;2.53;;;5.90;1.00;;;;;;5114456;27;20221;-79
2021/03/21 05:53:54;;;;;;;2.95;2.60;;;5.90;1.00;;;;;;5115748;27;20215;-84
2021/03/21 05:56:37;;;;;;;2.60;2.40;;;5.90;1.00;;;;;;5119407;27;20242;-82
2021/03/21 05:59:15;;;;;;;5.88;2.83;;;5.80;1.00;;;;;;5131342;27;20287;-81
2021/03/21 06:02:03;;;;;;;3.08;2.78;;;6.20;1.00;;;;;;5115163;27;20221;-80
2021/03/21 06:05:23;;;;;;;5.53;3.08;;;5.80;1.00;;;;;;5132021;27;20276;-81
2021/03/21 06:08:18;;;;;;;3.17;2.20;;;5.70;1.00;;;;;;5053222;28;20237;-81
2021/03/21 06:11:32;;;;;;;4.45;2.17;;;5.80;1.00;;;;;;5116063;27;20213;-83
2021/03/21 06:14:47;;;;;;;3.83;3.00;;;5.90;1.00;;;;;;5124990;27;20247;-83
2021/03/21 06:17:49;;;;;;;3.42;2.95;;;5.70;1.00;;;;;;5113833;28;20235;-84
2021/03/21 06:20:44;;;;;;;2.75;2.25;;;5.70;1.00;;;;;;5129725;27;20262;-82
2021/03/21 06:23:31;;;;;;;2.53;2.33;;;6.20;1.00;;;;;;5096902;27;20238;-78
2021/03/21 06:26:08;;;;;;;2.35;2.15;;;5.90;1.00;;;;;;5128668;27;20202;-79
2021/03/21 06:29:07;;;;;;;3.92;2.50;;;5.80;1.00;;;;;;5108914;27;20225;-80
2021/03/21 06:32:04;;;;;;;1.95;1.85;;;5.80;1.00;;;;;;5134775;27;20189;-79
2021/03/21 06:34:42;;;;;;;2.72;2.53;;;5.80;1.00;;;;;;5132242;27;20270;-78
2021/03/21 06:37:40;;;;;;;4.05;3.22;;;5.80;1.00;;;;;;5125735;27;20293;-79
2021/03/21 06:40:39;;;;;;;3.50;2.45;;;5.90;1.00;;;;;;5122973;27;20480;-77
2021/03/21 06:43:34;;;;;;;2.60;2.40;;;6.00;1.00;;;;;;5126391;27;20253;-80
2021/03/21 06:46:09;;;;;;;1.90;1.80;;;6.00;1.00;;;;;;5106890;27;20211;-79
2021/03/21 06:49:18;;;;;;;2.60;2.05;;;6.20;1.00;;;;;;5118973;27;20223;-80
2021/03/21 06:51:56;;;;;;;2.72;2.25;;;6.20;1.00;;;;;;5046476;28;20230;-81
2021/03/21 06:54:33;;;;;;;2.90;2.40;;;6.20;1.00;;;;;;5123973;27;20768;-80
2021/03/21 06:57:52;;;;;;;2.60;2.40;;;6.10;1.00;;;;;;5113178;27;20205;-79
2021/03/21 07:00:56;;;;;;;2.70;2.50;;;6.10;1.00;;;;;;5021569;28;20223;-81
2021/03/21 07:03:57;;;;;;;3.65;2.60;;;6.00;1.00;;;;;;5027992;28;20313;-80
2021/03/21 07:07:05;;;;;;;3.15;2.03;;;5.90;1.00;;;;;;5108057;27;20202;-80
2021/03/21 07:10:03;;;;;;;2.13;1.92;;;5.80;1.00;;;;;;5130014;27;20234;-79
2021/03/21 07:13:00;;;;;;;2.58;2.28;;;5.90;1.00;;;;;;5123566;27;20930;-78
2021/03/21 07:15:47;;;;;;;3.50;2.05;;;5.80;1.00;;;;;;5110163;27;20217;-81
2021/03/21 07:18:55;;;;;;;3.08;2.28;;;5.80;1.00;;;;;;5124707;27;20231;-78
2021/03/21 07:21:52;;;;;;;2.92;2.10;;;5.80;1.00;;;;;;5125985;28;20824;-81
2021/03/21 07:24:59;;;;;;;2.22;2.03;;;5.90;1.00;;;;;;5123047;28;20212;-78
2021/03/21 07:27:44;;;;;;;2.67;2.15;;;5.90;1.00;;;;;;5127633;28;20200;-82
2021/03/21 07:30:17;;;;;;;4.50;1.95;;;5.90;1.00;;;;;;5115191;28;20223;-80
2021/03/21 07:33:09;;;;;;;2.35;2.15;;;5.80;1.00;;;;;;5132422;28;20192;-80
2021/03/21 07:36:01;;;;;;;4.15;2.45;;;5.80;1.00;;;;;;5114573;28;20192;-80
2021/03/21 07:38:56;;;;;;;2.70;2.40;;;6.00;1.00;;;;;;5106235;28;20209;-80
2021/03/21 07:41:34;;;;;;;2.78;1.90;;;6.10;1.00;;;;;;5112484;28;20213;-81
2021/03/21 07:44:25;;;;;;;4.38;2.67;;;6.00;1.00;;;;;;5131582;28;20213;-80
2021/03/21 07:47:07;;;;;;;4.53;3.22;;;6.10;1.00;;;;;;5125491;28;20212;-80
2021/03/21 07:49:51;;;;;;;6.47;3.58;;;6.10;1.00;;;;;;5109921;28;20223;-81
2021/03/21 07:52:40;;;;;;;2.90;2.55;;;6.10;1.00;;;;;;5111332;28;20215;-82
2021/03/21 07:55:14;;;;;;;6.90;3.97;;;6.10;1.00;;;;;;5109216;28;20200;-81
2021/03/21 07:57:52;;;;;;;7.38;5.20;;;6.20;1.00;;;;;;5113191;27;20194;-83
2021/03/21 08:00:21;;;;;;;2.63;2.42;;;6.30;1.00;;;;;;5126028;28;21030;-82
2021/03/21 08:02:56;;;;;;;5.22;2.05;;;6.30;1.00;;;;;;5125815;28;20228;-81
2021/03/21 08:05:27;;;;;;;3.90;2.35;;;6.40;1.00;;;;;;5129889;28;20231;-81
2021/03/21 08:07:57;;;;;;;2.40;2.20;;;6.50;1.00;;;;;;5120484;28;20250;-79
2021/03/21 08:10:28;;;;;;;4.50;2.50;;;6.10;1.00;;;;;;5121163;27;20226;-81
2021/03/21 08:13:07;;;;;;;3.22;2.25;;;5.90;1.00;;;;;;5125940;28;20272;-81
2021/03/21 08:15:37;;;;;;;3.15;2.30;;;6.00;1.00;;;;;;5104816;28;20209;-78
2021/03/21 08:18:10;;;;;;;2.47;2.25;;;6.10;1.00;;;;;;5109597;28;20301;-79
2021/03/21 08:20:40;;;;;;;4.30;2.37;;;6.30;1.00;;;;;;5100123;28;20661;-78
2021/03/21 08:23:15;;;;;;;3.58;2.35;;;6.10;1.00;;;;;;5124019;28;20528;-79
2021/03/21 08:25:42;;;;;;;3.20;2.00;;;6.10;1.00;;;;;;5129273;27;20265;-80
2021/03/21 08:28:14;;;;;;;6.65;3.25;;;6.30;1.00;;;;;;5111003;27;20202;-80
2021/03/21 08:30:49;;;;;;;3.10;2.50;;;6.40;1.00;;;;;;5129782;27;20200;-80
2021/03/21 08:33:26;;;;;;;5.20;4.10;;;6.40;1.00;;;;;;5110218;27;20230;-79
2021/03/21 08:36:13;;;;;;;3.97;3.17;;;6.50;1.00;;;;;;5107249;27;20616;-79
2021/03/21 08:38:56;;;;;;;3.60;3.30;;;6.50;1.00;;;;;;5120686;27;20460;-77
2021/03/21 08:41:25;;;;;;;3.92;2.80;;;6.40;1.00;;;;;;5124210;27;21037;-79
2021/03/21 08:44:01;;;;;;;3.63;2.13;;;6.30;1.00;;;;;;5129073;27;20198;-80
2021/03/21 08:46:29;;;;;;;3.15;2.25;;;6.40;1.00;;;;;;5132338;27;20454;-79
2021/03/21 08:49:06;;;;;;;4.90;3.20;;;6.40;1.00;;;;;;5107713;27;20226;-79
2021/03/21 08:51:41;;;;;;;3.08;2.65;;;6.50;1.00;;;;;;5111186;27;20198;-81
2021/03/21 08:54:22;;;;;;;4.53;2.25;;;6.10;1.00;;;;;;5121742;27;20273;-78
2021/03/21 08:57:02;;;;;;;2.60;2.40;;;6.20;1.00;;;;;;5116907;27;20227;-78
2021/03/21 08:59:33;;;;;;;2.88;2.67;;;6.20;1.00;;;;;;5120236;27;20223;-78
2021/03/21 09:02:04;;;;;;;3.08;2.22;;;6.10;1.00;;;;;;5129355;27;20742;-79
2021/03/21 09:04:33;;;;;;;2.50;2.30;;;6.00;1.00;;;;;;5106859;27;20212;-79
2021/03/21 09:07:23;;;;;;;2.88;2.10;;;6.00;1.00;;;;;;5126023;27;20274;-77
2021/03/21 09:10:22;;;;;;;3.25;2.40;;;5.90;1.00;;;;;;5128134;27;20783;-79
2021/03/21 09:12:51;;;;;;;2.67;2.35;;;6.10;1.00;;;;;;5113622;27;20265;-78
2021/03/21 09:15:30;;;;;;;3.53;2.97;;;6.20;1.00;;;;;;5130563;27;20675;-81
2021/03/21 09:18:23;;;;;;;2.83;2.40;;;6.10;1.00;;;;;;5126744;27;20690;-78
2021/03/21 09:21:14;;;;;;;2.40;2.08;;;6.10;1.00;;;;;;5127585;27;20236;-79
2021/03/21 09:23:45;;;;;;;2.63;2.05;;;6.10;1.00;;;;;;5101220;27;20215;-79
2021/03/21 09:26:29;;;;;;;2.97;2.40;;;6.30;1.00;;;;;;5124329;27;20226;-81
2021/03/21 09:29:08;;;;;;;3.17;2.60;;;6.30;1.00;;;;;;5128299;27;20376;-80
2021/03/21 09:31:36;;;;;;;3.15;2.30;;;6.40;1.00;;;;;;5130748;27;20186;-78
2021/03/21 09:34:11;;;;;;;3.60;2.45;;;6.40;1.00;;;;;;5104890;27;20206;-78
2021/03/21 09:36:43;;;;;;;2.88;2.40;;;6.30;1.00;;;;;;5123094;27;20618;-77
2021/03/21 09:39:16;;;;;;;3.20;2.90;;;6.50;1.00;;;;;;5106060;27;20442;-78
2021/03/21 09:41:47;;;;;;;3.92;2.50;;;6.60;1.00;;;;;;5119838;27;20251;-80
2021/03/21 09:44:31;;;;;;;2.30;2.05;;;6.60;1.00;;;;;;5104929;27;20298;-78
2021/03/21 09:47:23;;;;;;;2.30;2.10;;;6.70;1.00;;;;;;5120227;27;20209;-77
2021/03/21 09:49:59;;;;;;;2.92;2.60;;;6.80;1.00;;;;;;5116738;27;20218;-79
2021/03/21 09:52:41;;;;;;;2.85;2.65;;;6.70;1.00;;;;;;5109809;27;20207;-77
2021/03/21 09:55:31;;;;;;;2.85;2.13;;;6.90;1.00;;;;;;5117808;27;20213;-77
2021/03/21 09:58:19;;;;;;;4.23;2.40;;;6.90;1.00;;;;;;5099579;27;20228;-76
2021/03/21 10:00:54;;;;;;;2.95;2.75;;;6.90;1.00;;;;;;5126802;27;20458;-77
2021/03/21 10:03:26;;;;;;;4.47;3.35;;;7.00;1.00;;;;;;5122558;27;20237;-78
2021/03/21 10:06:02;;;;;;;4.68;3.53;;;7.00;1.00;;;;;;5125650;27;20201;-77
2021/03/21 10:08:55;;;;;;;4.50;3.20;;;7.00;1.00;;;;;;5125373;27;20271;-77
2021/03/21 10:11:28;;;;;;;3.72;2.90;;;7.10;1.00;;;;;;5123066;27;20546;-79
2021/03/21 10:13:57;;;;;;;3.17;2.50;;;7.20;1.00;;;;;;5118651;27;20741;-78
2021/03/21 10:16:34;;;;;;;2.40;2.20;;;7.20;1.00;;;;;;5106789;27;20542;-79
2021/03/21 10:19:05;;;;;;;3.35;3.05;;;7.30;1.00;;;;;;5097155;27;20224;-77
2021/03/21 10:21:36;;;;;;;2.90;2.70;;;7.20;1.00;;;;;;5100457;27;20212;-76
2021/03/21 10:24:13;;;;;;;4.17;2.97;;;7.20;1.00;;;;;;5116114;27;20202;-78
2021/03/21 10:27:26;;;;;;;4.37;3.60;;;7.30;1.00;;;;;;5115856;27;22127;-78
2021/03/21 10:30:26;;;;;;;6.13;5.57;;;7.20;1.00;;;;;;5116753;27;21204;-79
2021/03/21 10:33:32;;;;;;;3.42;3.10;;;7.30;1.00;;;;;;5116464;27;20460;-79
2021/03/21 10:36:00;;;;;;;6.68;5.65;;;7.40;1.00;;;;;;5111042;27;20355;-77
2021/03/21 10:39:00;;;;;;;8.18;5.90;;;7.20;1.00;;;;;;5097344;27;20211;-77
2021/03/21 10:41:57;;;;;;;5.28;4.63;;;7.10;1.00;;;;;;5034572;28;20220;-78
2021/03/21 10:44:57;;;;;;;6.07;5.20;;;7.20;1.00;;;;;;5034685;28;20315;-78
2021/03/21 10:47:49;;;;;;;6.90;5.20;;;7.40;1.00;;;;;;5109406;27;20220;-77
2021/03/21 10:50:54;;;;;;;5.30;4.53;;;7.50;1.00;;;;;;5105563;27;20482;-78
2021/03/21 10:53:25;;;;;;;6.23;5.63;;;7.50;1.00;;;;;;5117259;27;20454;-78
2021/03/21 10:56:04;;;;;;;6.07;5.43;;;7.60;1.00;;;;;;5097146;27;20552;-79
2021/03/21 10:58:54;;;;;;;7.33;6.00;;;7.50;1.00;;;;;;5097467;27;20486;-78
2021/03/21 11:01:32;;;;;;;7.93;6.60;;;7.40;1.00;;;;;;5101553;27;20974;-78
2021/03/21 11:04:19;;;;;;;8.55;6.53;;;7.40;1.00;;;;;;5115122;27;20464;-77
2021/03/21 11:06:56;;;;;;;9.68;8.00;;;7.30;1.00;;;;;;5091714;27;20466;-80
2021/03/21 11:09:52;;;;;;;9.63;7.40;;;7.50;3.00;;;;;;5122898;27;20220;-78
2021/03/21 11:12:30;;;;;;;10.57;8.63;;;7.50;6.20;;;;;;5119766;27;20450;-79
2021/03/21 11:14:57;;;;;;;9.57;8.17;;;7.50;8.10;;;;;;5118781;27;20199;-78
2021/03/21 11:17:29;;;;;;;12.40;8.27;;;7.50;9.20;;;;;;5107260;27;20461;-77
2021/03/21 11:19:58;;;;;;;11.20;9.47;;;7.50;8.60;;;;;;5122243;27;20478;-78
2021/03/21 11:22:35;;;;;;;11.07;8.00;;;7.50;9.60;;;;;;5106408;28;20505;-78
2021/03/21 11:25:13;;;;;;;8.03;7.00;;;7.50;10.60;;;;;;5121840;27;20452;-79
2021/03/21 11:27:47;;;;;;;7.97;6.70;;;7.60;10.60;;;;;;5117709;28;21023;-77
2021/03/21 11:30:19;;;;;;;8.67;6.90;;;7.60;8.80;;;;;;5099523;28;20297;-77
2021/03/21 11:32:46;;;;;;;7.43;6.67;;;7.60;8.40;;;;;;5119363;28;20462;-77
2021/03/21 11:35:23;;;;;;;7.67;5.93;;;7.70;9.30;;;;;;5123373;27;20480;-76
2021/03/21 11:37:50;;;;;;;9.60;6.73;;;7.80;8.90;;;;;;5125172;28;20456;-77
2021/03/21 11:40:21;;;;;;;7.60;5.73;;;7.90;10.70;;;;;;5123447;28;20548;-78
2021/03/21 11:42:50;;;;;;;8.43;5.80;;;7.90;10.90;;;;;;5121478;28;20477;-78
2021/03/21 11:45:27;;;;;;;8.47;5.90;;;7.90;12.00;;;;;;5120864;28;21001;-78
2021/03/21 11:47:56;;;;;;;7.03;6.00;;;7.90;11.70;;;;;;5125710;28;20450;-79
2021/03/21 11:50:27;;;;;;;9.07;6.60;;;7.80;12.00;;;;;;5100969;27;20484;-80
2021/03/21 11:52:56;;;;;;;8.30;6.40;;;7.80;12.80;;;;;;5101748;28;20799;-78
2021/03/21 11:55:28;;;;;;;7.57;6.13;;;7.90;13.30;;;;;;5124933;28;20453;-77
2021/03/21 11:58:04;;;;;;;7.67;6.37;;;8.00;14.10;;;;;;5096135;28;20457;-77
2021/03/21 12:00:34;;;;;;;5.27;4.70;;;8.10;15.20;;;;;;5120287;27;21002;-77
2021/03/21 12:03:06;;;;;;;4.87;4.47;;;8.10;17.40;;;;;;5125220;27;20530;-77
2021/03/21 12:05:37;;;;;;;6.50;4.87;;;8.00;17.40;;;;;;5124938;27;20459;-77
2021/03/21 12:08:35;;;;;;;9.00;5.70;;;8.10;18.70;;;;;;5112005;27;20441;-77
2021/03/21 12:11:18;;;;;;;5.83;5.13;;;8.10;18.50;;;;;;5094542;27;20483;-77
2021/03/21 12:13:46;;;;;;;6.60;5.50;;;8.10;20.40;;;;;;5122723;27;20834;-77
2021/03/21 12:16:36;;;;;;;5.63;5.13;;;8.10;20.90;;;;;;5105905;27;21170;-77
2021/03/21 12:19:06;;;;;;;5.50;5.00;;;8.10;21.50;;;;;;5120398;27;20599;-77
2021/03/21 12:21:39;;;;;;;4.97;4.33;;;8.10;22.70;;;;;;5101874;27;20470;-77
2021/03/21 12:24:12;;;;;;;5.10;4.67;;;8.20;24.50;;;;;;5119456;27;20459;-78
2021/03/21 12:26:56;;;;;;;5.63;4.60;;;8.10;26.40;;;;;;5101669;27;20450;-76
2021/03/21 12:29:42;;;;;;;4.60;4.00;;;8.10;26.40;;;;;;5100099;27;20525;-77
2021/03/21 12:32:34;;;;;;;4.20;3.80;;;8.10;26.90;;;;;;5116134;27;20477;-78
2021/03/21 12:35:06;;;;;;;3.33;3.03;;;8.00;29.10;;;;;;5118801;27;20554;-77
2021/03/21 12:37:51;;;;;;;2.87;2.57;;;8.10;33.50;;;;;;5121911;27;20460;-76
2021/03/21 12:40:29;;;;;;;5.80;3.17;;;8.10;43.60;;;;;;5120083;27;20478;-76
2021/03/21 12:42:56;;;;;;;1.83;1.70;;;8.20;49.70;;;;;;5104972;27;20637;-76
2021/03/21 12:45:25;;;;;;;2.03;1.50;;;8.00;59.40;;;;;;5103522;27;20455;-78
2021/03/21 12:48:02;;;;;;;2.13;1.90;;;8.10;66.40;;;;;;5121183;27;20452;-79
2021/03/21 12:50:37;;;;;;;3.53;2.30;;;8.10;73.60;;;;;;5122834;27;20481;-76
2021/03/21 12:53:07;;;;;;;2.80;2.53;;;8.10;81.30;;;;;;5125115;27;20461;-77
2021/03/21 12:55:34;;;;;;;3.10;2.90;;;8.20;86.30;;;;;;5124257;27;20481;-76
2021/03/21 12:58:02;;;;;;;2.30;2.10;;;8.10;92.80;;;;;;5126373;27;20458;-77
2021/03/21 13:00:32;;;;;;;2.70;2.50;;;8.20;95.60;;;;;;5127724;27;20481;-77
2021/03/21 13:03:03;;;;;;;2.57;2.37;;;8.30;93.60;;;;;;5125127;27;20476;-77
2021/03/21 13:05:33;;;;;;;1.93;1.83;;;8.30;95.70;;;;;;5123880;27;20453;-77
2021/03/21 13:08:01;;;;;;;2.30;2.10;;;8.40;96.30;;;;;;5122849;27;20512;-78
2021/03/21 13:10:32;;;;;;;3.10;2.77;;;8.30;99.20;;;;;;5104733;28;20503;-76
2021/03/21 13:13:00;;;;;;;2.67;2.40;;;8.40;99.90;;;;;;5124304;27;20548;-77
2021/03/21 13:15:28;;;;;;;2.67;2.30;;;8.50;99.90;;;;;;5120220;27;20541;-77
2021/03/21 13:17:55;;;;;;;2.57;2.07;;;8.50;99.30;;;;;;5121253;27;20960;-81
2021/03/21 13:20:24;;;;;;;2.43;2.23;;;8.50;99.90;;;;;;5113100;27;20481;-78
2021/03/21 13:22:52;;;;;;;3.40;2.57;;;8.40;99.90;;;;;;5116265;27;20473;-76
2021/03/21 13:25:23;;;;;;;3.10;2.80;;;8.40;99.90;;;;;;5127054;27;20453;-79
2021/03/21 13:27:53;;;;;;;3.13;2.80;;;8.40;99.90;;;;;;5129039;27;20455;-79
2021/03/21 13:30:22;;;;;;;3.00;2.80;;;8.40;99.90;;;;;;5124128;27;20860;-79
2021/03/21 13:32:49;;;;;;;3.33;2.53;;;8.40;99.90;;;;;;5112846;27;20464;-79
2021/03/21 13:35:19;;;;;;;2.70;2.50;;;8.50;99.90;;;;;;5115102;27;20953;-79
2021/03/21 13:37:46;;;;;;;3.63;3.33;;;8.50;99.90;;;;;;5128338;27;20462;-79
2021/03/21 13:40:19;;;;;;;2.63;2.37;;;8.50;99.90;;;;;;5127776;27;20532;-79
2021/03/21 13:42:47;;;;;;;4.83;3.27;;;8.60;99.90;;;;;;5113080;27;20467;-79
2021/03/21 13:45:16;;;;;;;3.10;2.80;;;8.50;99.90;;;;;;5133867;27;20448;-79
2021/03/21 13:47:44;;;;;;;3.63;3.33;;;8.50;99.90;;;;;;5105743;27;20459;-78
2021/03/21 13:50:13;;;;;;;3.23;3.03;;;8.50;99.90;;;;;;5131070;27;20490;-79
2021/03/21 13:52:40;;;;;;;3.57;3.37;;;8.50;99.90;;;;;;5111032;27;20762;-79
2021/03/21 13:55:13;;;;;;;3.63;3.00;;;8.50;99.90;;;;;;5121588;27;20448;-79
2021/03/21 13:57:40;;;;;;;3.33;3.03;;;8.40;99.90;;;;;;5132334;27;20456;-79